Terminal Aerodrome Forecast
Issued by NWS

Home | Current Version | Previous Version | Text Only | Print | Product List | Glossary On
Versions: 1 2 3 4 5 6 7 8 9 10 11 12 13 14 15
000
FTUS43 KDVN 240520
TAFCID
TAF
KCID 240520Z 2406/2506 13005KT P6SM SCT120
     FM240900 18008KT 4SM BR BKN250
     FM241300 24008KT P6SM BKN120
     FM241900 31008KT P6SM SKC=

USA.gov is the U.S. government's official web portal to all federal, state and local government web resources and services.